Time;durP1;ratioP1;P1;durP2;ratioP2;P2;SDS_P1;SDS_P2;PMS_P1;PMS_P2;Temp;Humidity;BMP_temperature;BMP_pressure;BME280_temperature;BME280_humidity;BME280_pressure;Samples;Min_cycle;Max_cycle;Signal;HPM_P1;HPM_P2
2022/02/17 00:00:00;;;;;;;24.88;15.10;;;0.50;93.70;;;;;;5098155;28;20402;-90
2022/02/17 00:02:26;;;;;;;20.73;14.38;;;0.50;93.70;;;;;;5097407;28;20020;-89
2022/02/17 00:04:54;;;;;;;24.00;14.07;;;0.40;93.70;;;;;;5101233;28;20057;-89
2022/02/17 00:07:20;;;;;;;23.08;14.00;;;0.40;93.70;;;;;;5113747;28;20032;-89
2022/02/17 00:09:47;;;;;;;35.63;15.75;;;0.40;93.70;;;;;;5091103;28;20032;-90
2022/02/17 00:12:18;;;;;;;28.83;17.92;;;0.40;93.70;;;;;;5109236;28;20028;-90
2022/02/17 00:15:15;;;;;;;26.50;17.98;;;0.50;93.70;;;;;;5115404;28;20052;-90
2022/02/17 00:17:41;;;;;;;24.95;14.00;;;0.60;93.70;;;;;;5111687;28;20028;-89
2022/02/17 00:20:12;;;;;;;27.90;17.67;;;0.60;93.60;;;;;;5082712;28;20816;-90
2022/02/17 00:22:38;;;;;;;26.83;14.32;;;0.60;93.60;;;;;;5062757;28;20024;-88
2022/02/17 00:25:05;;;;;;;24.27;14.88;;;0.50;93.60;;;;;;5064750;28;20024;-87
2022/02/17 00:27:31;;;;;;;29.98;17.13;;;0.50;93.80;;;;;;5063264;28;20103;-87
2022/02/17 00:29:57;;;;;;;31.02;16.98;;;0.40;93.90;;;;;;5084905;28;20040;-88
2022/02/17 00:32:25;;;;;;;32.95;19.88;;;0.40;94.00;;;;;;5087519;28;20045;-89
2022/02/17 00:34:51;;;;;;;30.90;16.27;;;0.40;94.00;;;;;;5064919;28;20016;-85
2022/02/17 00:37:17;;;;;;;33.85;18.77;;;0.50;94.20;;;;;;5096037;28;20036;-88
2022/02/17 00:39:43;;;;;;;29.02;16.85;;;0.40;94.20;;;;;;5105661;28;20040;-88
2022/02/17 00:42:08;;;;;;;31.38;19.17;;;0.40;94.40;;;;;;5117305;28;20126;-87
2022/02/17 00:44:35;;;;;;;24.17;13.73;;;0.40;94.40;;;;;;5121789;28;20053;-90
2022/02/17 00:47:02;;;;;;;36.85;19.40;;;0.50;94.30;;;;;;5112266;28;20055;-88
2022/02/17 00:49:30;;;;;;;35.35;21.13;;;0.40;94.50;;;;;;5125069;28;20027;-88
2022/02/17 00:51:56;;;;;;;37.30;21.80;;;0.40;94.60;;;;;;5115603;28;20417;-85
2022/02/17 00:54:23;;;;;;;38.40;20.15;;;0.50;94.70;;;;;;5116387;28;20058;-85
2022/02/17 00:56:49;;;;;;;39.83;22.57;;;0.50;94.70;;;;;;5118207;28;20032;-85
2022/02/17 00:59:16;;;;;;;40.63;23.95;;;0.50;94.60;;;;;;5132821;28;20283;-86
2022/02/17 01:01:46;;;;;;;37.65;21.30;;;0.50;94.70;;;;;;5129463;28;20034;-87
2022/02/17 01:04:15;;;;;;;41.13;24.13;;;0.50;94.70;;;;;;5129954;28;20076;-90
2022/02/17 01:06:46;;;;;;;38.20;22.40;;;0.50;94.80;;;;;;5137732;28;20026;-89
2022/02/17 01:09:13;;;;;;;41.85;22.73;;;0.50;94.90;;;;;;5138509;28;20016;-90
2022/02/17 01:11:39;;;;;;;39.45;21.88;;;0.50;94.80;;;;;;5116484;27;20028;-88
2022/02/17 01:14:06;;;;;;;39.03;23.90;;;0.50;94.90;;;;;;5104927;28;20044;-89
2022/02/17 01:16:32;;;;;;;40.05;22.00;;;0.40;95.00;;;;;;5108757;28;20016;-87
2022/02/17 01:18:58;;;;;;;39.90;22.20;;;0.40;95.20;;;;;;5098157;28;20024;-83
2022/02/17 01:21:24;;;;;;;38.50;21.83;;;0.40;95.20;;;;;;5094274;28;20031;-89
2022/02/17 01:23:50;;;;;;;41.97;25.17;;;0.40;95.30;;;;;;5119289;28;20080;-83
2022/02/17 01:26:16;;;;;;;37.30;19.35;;;0.40;95.40;;;;;;5116470;28;20103;-85
2022/02/17 01:28:43;;;;;;;38.10;23.40;;;0.40;95.40;;;;;;5097767;28;20056;-84
2022/02/17 01:31:09;;;;;;;40.13;23.48;;;0.40;95.50;;;;;;5093954;28;20046;-88
2022/02/17 01:33:36;;;;;;;37.55;17.65;;;0.40;95.40;;;;;;5094911;28;20040;-88
2022/02/17 01:36:11;;;;;;;39.25;23.27;;;0.50;95.40;;;;;;5094642;28;20465;-87
2022/02/17 01:38:39;;;;;;;37.05;21.27;;;0.50;95.30;;;;;;5097587;28;20034;-85
2022/02/17 01:41:07;;;;;;;44.92;23.50;;;0.50;95.30;;;;;;5099516;28;20027;-84
2022/02/17 01:43:37;;;;;;;39.33;23.45;;;0.50;95.40;;;;;;5095293;28;20418;-80
2022/02/17 01:46:03;;;;;;;42.33;24.92;;;0.50;95.30;;;;;;5094229;28;20400;-80
2022/02/17 01:48:31;;;;;;;40.37;22.57;;;0.50;95.30;;;;;;5093291;28;20028;-84
2022/02/17 01:50:57;;;;;;;41.00;24.38;;;0.60;95.20;;;;;;5091858;28;20024;-82
2022/02/17 01:53:23;;;;;;;40.05;23.27;;;0.60;95.20;;;;;;5093342;28;20047;-85
2022/02/17 01:55:52;;;;;;;38.55;22.63;;;0.50;95.00;;;;;;5092596;28;20024;-87
2022/02/17 01:58:18;;;;;;;35.40;20.15;;;0.50;95.00;;;;;;5095367;28;20051;-84
2022/02/17 02:00:45;;;;;;;38.63;21.27;;;0.40;95.10;;;;;;5105822;28;20042;-82
2022/02/17 02:03:13;;;;;;;36.33;22.02;;;0.30;95.20;;;;;;5117609;28;20036;-81
2022/02/17 02:05:40;;;;;;;37.55;22.40;;;0.30;95.20;;;;;;5112248;28;20024;-82
2022/02/17 02:08:08;;;;;;;45.42;23.48;;;0.30;95.30;;;;;;5103387;28;20393;-83
2022/02/17 02:10:34;;;;;;;35.10;19.13;;;0.40;95.40;;;;;;5123637;28;20028;-87
2022/02/17 02:13:00;;;;;;;41.00;21.33;;;0.40;95.40;;;;;;5125275;28;20044;-88
2022/02/17 02:15:30;;;;;;;39.85;20.40;;;0.30;95.40;;;;;;5115402;28;20020;-86
2022/02/17 02:17:56;;;;;;;35.28;19.85;;;0.30;95.40;;;;;;5114086;28;20020;-87
2022/02/17 02:20:21;;;;;;;38.97;19.83;;;0.30;95.40;;;;;;5113290;28;20065;-84
2022/02/17 02:22:47;;;;;;;41.92;20.98;;;0.30;95.50;;;;;;5114247;28;20073;-86
2022/02/17 02:25:13;;;;;;;36.58;20.85;;;0.30;95.60;;;;;;5113403;28;20019;-87
2022/02/17 02:27:39;;;;;;;33.88;19.90;;;0.30;95.60;;;;;;5116133;28;20020;-83
2022/02/17 02:30:07;;;;;;;39.03;19.00;;;0.20;95.60;;;;;;5117965;28;20030;-86
2022/02/17 02:32:36;;;;;;;35.83;21.65;;;0.20;95.70;;;;;;5117219;28;20032;-86
2022/02/17 02:35:03;;;;;;;26.38;16.35;;;0.20;95.80;;;;;;5119778;28;20024;-85
2022/02/17 02:37:28;;;;;;;24.77;15.18;;;0.20;95.90;;;;;;5131310;28;20114;-87
2022/02/17 02:39:54;;;;;;;42.40;22.65;;;0.20;95.90;;;;;;5133213;28;20027;-86
2022/02/17 02:42:21;;;;;;;36.13;18.33;;;0.20;95.90;;;;;;5107081;28;20426;-87
2022/02/17 02:44:47;;;;;;;32.70;16.95;;;0.20;95.90;;;;;;5096878;28;20040;-87
2022/02/17 02:47:13;;;;;;;41.25;22.23;;;0.30;96.00;;;;;;5095620;28;20039;-84
2022/02/17 02:49:39;;;;;;;34.45;19.80;;;0.30;96.00;;;;;;5093914;28;20110;-86
2022/02/17 02:52:06;;;;;;;36.38;21.40;;;0.40;95.90;;;;;;5096266;28;20024;-83
2022/02/17 02:54:32;;;;;;;38.75;22.63;;;0.40;95.80;;;;;;5095915;28;20064;-84
2022/02/17 02:56:57;;;;;;;33.97;21.52;;;0.50;95.70;;;;;;5093290;28;20338;-84
2022/02/17 02:59:23;;;;;;;46.50;21.98;;;0.50;95.60;;;;;;5102607;28;20032;-82
2022/02/17 03:01:49;;;;;;;36.83;20.08;;;0.40;95.70;;;;;;5103363;28;20048;-83
2022/02/17 03:04:15;;;;;;;35.58;19.52;;;0.40;95.80;;;;;;5091575;28;20081;-82
2022/02/17 03:06:41;;;;;;;41.33;22.23;;;0.40;95.90;;;;;;5094627;28;20032;-81
2022/02/17 03:09:07;;;;;;;29.50;13.50;;;0.40;96.00;;;;;;5093367;28;20020;-84
2022/02/17 03:11:34;;;;;;;26.08;14.52;;;0.40;96.10;;;;;;5090921;28;20028;-84
2022/02/17 03:14:00;;;;;;;;;;;0.30;96.40;;;;;;5093088;28;20096;-82
2022/02/17 03:16:27;;;;;;;34.15;18.17;;;0.30;96.90;;;;;;5092244;28;20003;-83
2022/02/17 03:18:55;;;;;;;38.65;18.48;;;0.10;97.10;;;;;;5092034;28;20031;-83
2022/02/17 03:21:22;;;;;;;36.72;21.20;;;0.10;97.40;;;;;;5093529;28;20032;-85
2022/02/17 03:23:47;;;;;;;23.93;14.10;;;0.10;97.60;;;;;;5096186;28;20020;-83
2022/02/17 03:26:14;;;;;;;27.80;14.98;;;0.10;97.80;;;;;;5094600;28;20050;-83
2022/02/17 03:28:40;;;;;;;28.17;15.57;;;0.20;97.80;;;;;;5095072;28;20115;-85
2022/02/17 03:31:06;;;;;;;24.60;13.55;;;0.10;97.80;;;;;;5096013;28;20121;-86
2022/02/17 03:33:31;;;;;;;29.05;16.08;;;0.10;97.90;;;;;;5094243;28;20117;-83
2022/02/17 03:35:57;;;;;;;22.90;13.00;;;0.20;97.90;;;;;;5095514;28;20020;-83
2022/02/17 03:38:23;;;;;;;25.40;16.27;;;0.20;97.90;;;;;;5094430;28;20035;-84
2022/02/17 03:40:49;;;;;;;32.55;15.32;;;0.30;97.90;;;;;;5086516;28;20032;-84
2022/02/17 03:43:15;;;;;;;25.15;13.77;;;0.30;97.90;;;;;;5096155;28;20043;-82
2022/02/17 03:45:40;;;;;;;24.65;16.58;;;0.40;97.60;;;;;;5096870;28;20563;-80
2022/02/17 03:48:06;;;;;;;36.90;20.40;;;0.40;97.70;;;;;;5096745;28;20176;-83
2022/02/17 03:50:32;;;;;;;29.63;14.52;;;0.40;97.80;;;;;;5077611;28;20040;-83
2022/02/17 03:52:58;;;;;;;23.50;14.27;;;0.40;97.80;;;;;;5074387;28;20086;-84
2022/02/17 03:55:24;;;;;;;34.53;20.10;;;0.30;97.80;;;;;;5075599;28;20090;-83
2022/02/17 03:57:50;;;;;;;28.77;14.23;;;0.40;97.90;;;;;;5074210;28;20032;-84
2022/02/17 04:00:16;;;;;;;35.15;18.08;;;0.40;97.90;;;;;;5074446;28;20031;-82
2022/02/17 04:02:42;;;;;;;31.25;18.27;;;0.40;97.90;;;;;;5076496;28;20123;-82
2022/02/17 04:05:08;;;;;;;33.83;18.20;;;0.50;97.90;;;;;;5097143;28;20071;-84
2022/02/17 04:07:35;;;;;;;30.05;16.05;;;0.50;97.80;;;;;;5098179;28;20028;-84
2022/02/17 04:10:01;;;;;;;26.98;16.35;;;0.60;97.80;;;;;;5100439;28;20031;-84
2022/02/17 04:12:27;;;;;;;25.20;14.95;;;0.60;97.60;;;;;;5100907;28;20028;-81
2022/02/17 04:14:53;;;;;;;29.85;16.42;;;0.60;97.70;;;;;;5099302;28;20443;-79
2022/02/17 04:17:19;;;;;;;33.20;17.90;;;0.50;97.60;;;;;;5094172;28;20053;-79
2022/02/17 04:19:45;;;;;;;21.33;12.38;;;0.60;97.80;;;;;;5095011;28;20431;-80
2022/02/17 04:22:11;;;;;;;36.55;19.33;;;0.60;97.80;;;;;;5093603;28;20069;-82
2022/02/17 04:24:37;;;;;;;20.70;12.93;;;0.60;97.80;;;;;;5095499;28;20108;-83
2022/02/17 04:27:03;;;;;;;21.90;13.57;;;0.60;97.90;;;;;;5104639;28;20446;-77
2022/02/17 04:29:28;;;;;;;26.30;14.52;;;0.50;98.00;;;;;;5094317;28;20032;-80
2022/02/17 04:31:54;;;;;;;22.73;12.70;;;0.60;98.00;;;;;;5103221;28;20030;-81
2022/02/17 04:34:20;;;;;;;20.15;11.43;;;0.50;98.00;;;;;;5093861;28;20032;-79
2022/02/17 04:36:47;;;;;;;28.92;16.83;;;0.60;97.90;;;;;;5093805;28;20020;-79
2022/02/17 04:39:12;;;;;;;35.55;18.98;;;0.60;98.00;;;;;;5094036;28;20043;-79
2022/02/17 04:44:23;;;;;;;27.58;15.73;;;0.70;98.00;;;;;;5093606;28;20079;-80
2022/02/17 04:46:48;;;;;;;29.48;16.30;;;0.70;97.80;;;;;;5093663;28;20460;-81
2022/02/17 04:49:15;;;;;;;22.70;13.40;;;0.70;97.90;;;;;;5094892;28;20023;-80
2022/02/17 04:51:41;;;;;;;20.80;12.95;;;0.70;97.80;;;;;;5100032;28;20035;-80
2022/02/17 04:54:07;;;;;;;25.65;14.02;;;0.70;97.70;;;;;;5096481;28;20071;-82
2022/02/17 04:56:33;;;;;;;25.98;15.63;;;0.80;97.60;;;;;;5092927;28;20031;-81
2022/02/17 04:59:00;;;;;;;17.50;11.30;;;0.80;97.50;;;;;;5092251;28;20032;-81
2022/02/17 05:01:25;;;;;;;24.00;13.15;;;0.80;97.40;;;;;;5093362;28;20334;-80
2022/02/17 05:03:51;;;;;;;20.55;13.25;;;0.80;97.20;;;;;;5092839;28;20034;-81
2022/02/17 05:06:18;;;;;;;20.27;12.75;;;0.80;97.30;;;;;;5091814;28;20024;-80
2022/02/17 05:08:45;;;;;;;24.75;12.70;;;0.80;97.20;;;;;;5093145;28;20523;-79
2022/02/17 05:11:10;;;;;;;17.98;10.15;;;0.80;97.20;;;;;;5091809;28;20122;-80
2022/02/17 05:13:36;;;;;;;25.80;14.63;;;0.80;97.20;;;;;;5092788;28;20131;-80
2022/02/17 05:16:02;;;;;;;17.15;9.75;;;0.80;97.10;;;;;;5092994;28;20797;-82
2022/02/17 05:18:28;;;;;;;14.63;9.35;;;0.90;96.90;;;;;;5090967;28;20508;-80
2022/02/17 05:20:54;;;;;;;15.70;10.10;;;0.90;96.80;;;;;;5093126;28;20023;-80
2022/02/17 05:23:20;;;;;;;20.95;14.05;;;0.90;96.80;;;;;;5091485;28;20028;-80
2022/02/17 05:25:47;;;;;;;16.15;10.20;;;0.90;96.80;;;;;;5092758;28;20031;-81
2022/02/17 05:28:13;;;;;;;21.90;13.40;;;1.00;96.80;;;;;;5092715;28;20028;-81
2022/02/17 05:30:40;;;;;;;14.25;9.05;;;1.00;96.70;;;;;;5092872;28;20031;-79
2022/02/17 05:33:14;;;;;;;17.48;11.15;;;1.10;96.60;;;;;;5091597;28;20161;-77
2022/02/17 05:35:41;;;;;;;20.33;11.80;;;1.10;96.40;;;;;;5092625;28;20431;-82
2022/02/17 05:38:08;;;;;;;12.25;7.25;;;1.10;96.20;;;;;;5102696;28;20749;-78
2022/02/17 05:40:35;;;;;;;21.65;13.50;;;1.10;96.00;;;;;;5112816;28;20026;-83
2022/02/17 05:43:02;;;;;;;12.35;8.02;;;1.10;96.10;;;;;;5116010;28;20023;-78
2022/02/17 05:45:28;;;;;;;21.35;10.82;;;1.10;96.00;;;;;;5113282;28;20019;-79
2022/02/17 05:47:55;;;;;;;21.88;11.88;;;1.10;96.00;;;;;;5112416;28;20031;-78
2022/02/17 05:50:22;;;;;;;18.60;10.38;;;1.10;96.10;;;;;;5112185;28;20387;-79
2022/02/17 05:52:48;;;;;;;18.10;11.77;;;1.10;95.90;;;;;;5111806;28;20378;-79
2022/02/17 05:55:16;;;;;;;15.75;10.63;;;1.10;95.90;;;;;;5112413;28;20026;-78
2022/02/17 05:57:42;;;;;;;14.48;9.07;;;1.20;95.80;;;;;;5112689;28;20251;-77
2022/02/17 06:00:09;;;;;;;16.48;10.60;;;1.20;95.80;;;;;;5112243;28;20024;-79
2022/02/17 06:02:35;;;;;;;13.40;8.40;;;1.20;95.70;;;;;;5110907;28;20392;-79
2022/02/17 06:05:00;;;;;;;17.05;9.88;;;1.20;95.60;;;;;;5112421;28;20106;-79
2022/02/17 06:07:26;;;;;;;17.75;11.02;;;1.20;95.60;;;;;;5111620;28;20430;-78
2022/02/17 06:09:52;;;;;;;20.90;11.23;;;1.30;95.60;;;;;;5098673;28;20032;-78
2022/02/17 06:12:18;;;;;;;11.98;7.95;;;1.30;95.60;;;;;;5092702;28;20051;-79
2022/02/17 06:14:44;;;;;;;17.00;10.00;;;1.40;95.40;;;;;;5092340;28;20024;-78
2022/02/17 06:17:09;;;;;;;13.85;8.43;;;1.40;95.10;;;;;;5094676;28;20169;-79
2022/02/17 06:19:35;;;;;;;19.42;9.32;;;1.40;95.10;;;;;;5100748;28;20026;-78
2022/02/17 06:22:01;;;;;;;13.52;9.02;;;1.30;95.20;;;;;;5098193;28;20101;-80
2022/02/17 06:24:27;;;;;;;17.60;12.10;;;1.30;95.40;;;;;;5096490;28;20075;-81
2022/02/17 06:26:53;;;;;;;18.42;11.23;;;1.30;95.40;;;;;;5093864;28;20066;-78
2022/02/17 06:29:18;;;;;;;16.70;10.00;;;1.30;95.60;;;;;;5092741;28;20042;-79
2022/02/17 06:31:44;;;;;;;14.90;9.55;;;1.40;95.40;;;;;;5092863;28;20028;-79
2022/02/17 06:34:11;;;;;;;21.40;10.55;;;1.30;95.20;;;;;;5093234;28;20028;-78
2022/02/17 06:36:37;;;;;;;14.03;10.80;;;1.30;95.40;;;;;;5093146;28;20383;-79
2022/02/17 06:39:04;;;;;;;16.60;10.82;;;1.30;95.50;;;;;;5092362;28;20089;-78
2022/02/17 06:41:30;;;;;;;14.85;9.60;;;1.40;95.60;;;;;;5093464;28;20024;-78
2022/02/17 06:43:56;;;;;;;18.15;11.20;;;1.40;95.50;;;;;;5094154;28;20035;-78
2022/02/17 06:46:21;;;;;;;16.30;10.20;;;1.40;95.50;;;;;;5092068;28;20028;-79
2022/02/17 06:48:47;;;;;;;11.88;8.40;;;1.50;95.50;;;;;;5090269;28;20143;-79
2022/02/17 06:51:13;;;;;;;15.15;9.15;;;1.50;95.40;;;;;;5091509;28;20032;-81
2022/02/17 06:53:39;;;;;;;18.65;12.45;;;1.50;95.10;;;;;;5091713;28;20024;-81
2022/02/17 06:56:06;;;;;;;14.27;9.73;;;1.40;95.20;;;;;;5094269;28;20384;-77
2022/02/17 06:58:32;;;;;;;18.15;9.30;;;1.40;95.30;;;;;;5094772;28;20087;-81
2022/02/17 07:00:59;;;;;;;17.20;11.02;;;1.40;95.30;;;;;;5094992;28;20119;-80
2022/02/17 07:03:25;;;;;;;13.67;7.20;;;1.50;95.40;;;;;;5096016;28;20020;-81
2022/02/17 07:05:51;;;;;;;14.48;10.25;;;1.50;95.30;;;;;;5095658;28;20022;-80
2022/02/17 07:08:17;;;;;;;17.02;10.60;;;1.50;95.20;;;;;;5093374;28;20516;-80
2022/02/17 07:10:56;;;;;;;16.55;12.15;;;1.50;95.20;;;;;;5095569;28;20069;-78
2022/02/17 07:13:23;;;;;;;13.98;8.70;;;1.60;95.30;;;;;;5095100;28;20451;-80
2022/02/17 07:15:50;;;;;;;19.00;12.27;;;1.60;95.10;;;;;;5095754;28;20079;-79
2022/02/17 07:18:17;;;;;;;20.88;10.95;;;1.60;95.10;;;;;;5095416;28;20020;-80
2022/02/17 07:20:44;;;;;;;12.50;9.10;;;1.60;94.90;;;;;;5093831;28;20483;-79
2022/02/17 07:23:11;;;;;;;13.32;7.93;;;1.60;95.10;;;;;;5093794;28;20141;-80
2022/02/17 07:25:37;;;;;;;17.83;11.23;;;1.60;95.20;;;;;;5093604;28;20020;-78
2022/02/17 07:31:30;;;;;;;14.73;8.23;;;1.70;95.20;;;;;;5095715;28;20028;-80
2022/02/17 07:33:55;;;;;;;19.85;9.75;;;1.70;94.90;;;;;;5090519;28;20048;-81
2022/02/17 07:36:21;;;;;;;18.00;10.93;;;1.70;95.10;;;;;;5094027;28;20108;-81
2022/02/17 07:38:52;;;;;;;18.75;12.63;;;1.70;95.20;;;;;;5094226;28;20038;-81
2022/02/17 07:41:18;;;;;;;18.63;12.38;;;1.80;95.30;;;;;;5095343;28;20031;-78
2022/02/17 07:44:26;;;;;;;18.60;12.27;;;1.90;95.30;;;;;;5094117;28;20124;-80
2022/02/17 07:46:58;;;;;;;20.08;12.38;;;1.90;95.10;;;;;;5083590;28;20029;-79
2022/02/17 07:49:30;;;;;;;16.35;10.65;;;1.90;95.00;;;;;;5095006;28;20024;-80
2022/02/17 07:57:51;;;;;;;12.98;8.48;;;2.00;95.20;;;;;;5094010;28;20028;-80
2022/02/17 08:00:20;;;;;;;18.75;11.55;;;2.00;95.10;;;;;;5093155;28;20055;-79
2022/02/17 08:02:46;;;;;;;12.82;8.07;;;2.00;95.20;;;;;;5094616;28;20024;-80
2022/02/17 08:05:12;;;;;;;15.30;9.82;;;2.00;95.30;;;;;;5094948;28;20024;-81
2022/02/17 08:07:39;;;;;;;17.23;11.15;;;2.00;95.40;;;;;;5094853;28;20092;-79
2022/02/17 08:10:06;;;;;;;15.00;10.37;;;2.10;95.40;;;;;;5093484;28;20413;-81
2022/02/17 08:12:32;;;;;;;15.23;10.80;;;2.10;95.30;;;;;;5094712;28;20386;-80
2022/02/17 08:14:58;;;;;;;17.73;11.60;;;2.20;95.30;;;;;;5093781;28;20164;-79
2022/02/17 08:17:24;;;;;;;17.10;10.30;;;2.20;95.40;;;;;;5094378;28;20096;-80
2022/02/17 08:19:50;;;;;;;17.75;12.57;;;2.30;95.20;;;;;;5093190;28;20024;-80
2022/02/17 08:22:17;;;;;;;20.63;14.07;;;2.30;95.20;;;;;;5094353;28;20495;-82
2022/02/17 08:24:43;;;;;;;20.88;12.05;;;2.40;95.30;;;;;;5094001;28;20055;-79
2022/02/17 08:27:11;;;;;;;19.50;10.98;;;2.40;95.10;;;;;;5093196;28;20437;-77
2022/02/17 08:29:37;;;;;;;19.63;12.77;;;2.50;95.10;;;;;;5096125;28;20031;-79
2022/02/17 08:32:03;;;;;;;21.02;13.88;;;2.50;95.00;;;;;;5105525;28;20020;-78
2022/02/17 08:34:29;;;;;;;22.77;14.13;;;2.50;95.10;;;;;;5104179;28;20040;-78
2022/02/17 08:36:54;;;;;;;25.77;14.73;;;2.50;95.20;;;;;;5096190;28;20480;-78
2022/02/17 08:39:20;;;;;;;25.38;11.70;;;2.60;95.20;;;;;;5093475;28;20032;-79
2022/02/17 08:42:04;;;;;;;23.85;14.30;;;2.60;95.10;;;;;;5093815;28;20046;-79
2022/02/17 08:44:32;;;;;;;15.35;10.10;;;2.70;95.20;;;;;;5093658;28;20384;-80
2022/02/17 08:46:58;;;;;;;22.90;13.77;;;2.70;95.00;;;;;;5093750;28;20475;-80
2022/02/17 08:49:24;;;;;;;23.85;13.10;;;2.70;95.10;;;;;;5107762;28;20062;-79
2022/02/17 08:51:49;;;;;;;17.23;11.23;;;2.80;95.10;;;;;;5113941;28;20427;-80
2022/02/17 08:54:15;;;;;;;20.27;11.85;;;2.80;95.00;;;;;;5113779;28;20024;-78
2022/02/17 08:56:42;;;;;;;30.73;14.15;;;2.80;95.10;;;;;;5113943;28;20030;-78
2022/02/17 08:59:08;;;;;;;19.90;11.82;;;2.80;95.20;;;;;;5112163;28;20032;-79
2022/02/17 09:01:39;;;;;;;20.70;13.20;;;2.90;95.30;;;;;;5113688;28;20076;-79
2022/02/17 09:04:05;;;;;;;26.27;14.73;;;3.00;95.30;;;;;;5106654;28;20027;-80
2022/02/17 09:06:32;;;;;;;19.45;10.77;;;3.10;95.00;;;;;;5093556;28;20020;-79
2022/02/17 09:08:57;;;;;;;22.90;14.57;;;3.10;94.90;;;;;;5093410;28;20150;-79
2022/02/17 09:11:23;;;;;;;22.45;13.90;;;3.10;95.10;;;;;;5092131;28;20108;-82
2022/02/17 09:13:49;;;;;;;21.83;11.70;;;3.10;95.00;;;;;;5093583;28;20052;-78
2022/02/17 09:16:15;;;;;;;21.17;14.18;;;3.20;94.90;;;;;;5093473;28;20030;-79
2022/02/17 09:18:41;;;;;;;20.70;10.85;;;3.10;95.00;;;;;;5092282;28;20016;-80
2022/02/17 09:21:06;;;;;;;14.30;9.23;;;3.10;95.00;;;;;;5092173;28;20020;-79
2022/02/17 09:23:34;;;;;;;20.75;11.73;;;3.20;95.00;;;;;;5093182;28;20038;-79
2022/02/17 09:25:59;;;;;;;21.02;11.15;;;3.10;95.10;;;;;;5091358;28;20504;-78
2022/02/17 09:28:25;;;;;;;14.18;9.02;;;3.20;95.20;;;;;;5092531;28;20031;-79
2022/02/17 09:31:23;;;;;;;;;;;;;;;;;;;;;
2022/02/17 09:33:50;;;;;;;18.52;9.80;;;3.40;94.90;;;;;;5092675;28;20027;-79
2022/02/17 09:36:17;;;;;;;11.77;9.23;;;3.40;94.80;;;;;;5092756;28;20372;-81
2022/02/17 09:38:43;;;;;;;20.73;11.35;;;3.40;94.80;;;;;;5092534;28;20044;-80
2022/02/17 09:41:10;;;;;;;26.88;14.15;;;3.40;94.80;;;;;;5096662;28;20115;-78
2022/02/17 09:43:39;;;;;;;20.13;12.73;;;3.50;94.80;;;;;;5092591;28;20477;-83
2022/02/17 09:46:05;;;;;;;22.00;14.27;;;3.60;94.80;;;;;;5091889;28;20024;-79
2022/02/17 09:48:32;;;;;;;25.52;13.75;;;3.60;94.50;;;;;;5092430;28;20108;-78
2022/02/17 09:50:58;;;;;;;20.48;11.20;;;3.70;94.30;;;;;;5091691;28;20051;-81
2022/02/17 09:53:24;;;;;;;20.40;11.95;;;3.80;94.10;;;;;;5092653;28;20039;-81
2022/02/17 09:55:50;;;;;;;23.38;14.07;;;3.80;94.00;;;;;;5091072;28;20020;-81
2022/02/17 09:58:17;;;;;;;22.55;11.43;;;3.90;94.00;;;;;;5092467;28;20027;-80
2022/02/17 10:00:42;;;;;;;19.67;12.35;;;3.90;93.90;;;;;;5092042;28;20016;-78
2022/02/17 10:03:29;;;;;;;23.02;12.25;;;4.00;93.70;;;;;;5090994;28;20051;-78
2022/02/17 10:06:08;;;;;;;23.65;14.07;;;4.00;93.40;;;;;;5090820;28;20020;-79
2022/02/17 10:08:36;;;;;;;27.77;15.57;;;4.10;93.50;;;;;;5091009;28;20051;-80
2022/02/17 10:11:03;;;;;;;22.67;12.40;;;4.10;93.60;;;;;;5092181;28;20024;-80
2022/02/17 10:13:29;;;;;;;19.25;11.88;;;4.20;93.30;;;;;;5091870;28;20040;-78
2022/02/17 10:15:59;;;;;;;15.18;10.88;;;4.10;93.00;;;;;;5091079;28;20042;-81
2022/02/17 10:18:30;;;;;;;17.67;11.68;;;4.20;93.00;;;;;;5091331;28;20024;-79
2022/02/17 10:21:07;;;;;;;17.35;12.20;;;4.20;93.00;;;;;;5092228;28;20016;-79
2022/02/17 10:23:51;;;;;;;23.02;12.77;;;4.30;92.80;;;;;;5092484;28;20035;-79
2022/02/17 10:26:23;;;;;;;16.25;11.10;;;4.30;92.60;;;;;;5094584;28;20036;-81
2022/02/17 10:28:57;;;;;;;19.23;11.60;;;4.40;92.70;;;;;;5093524;28;20027;-80
2022/02/17 10:31:36;;;;;;;19.60;12.93;;;4.40;92.40;;;;;;5094218;28;20031;-81
2022/02/17 10:34:05;;;;;;;19.63;10.40;;;4.60;92.50;;;;;;5094654;28;20110;-79
2022/02/17 10:36:40;;;;;;;16.95;10.77;;;4.60;92.20;;;;;;5094364;28;20063;-80
2022/02/17 10:39:19;;;;;;;18.45;10.93;;;4.60;92.10;;;;;;5095645;28;20042;-80
2022/02/17 10:42:06;;;;;;;15.60;11.43;;;4.70;91.80;;;;;;5099393;28;20081;-81
2022/02/17 10:44:37;;;;;;;22.60;12.48;;;4.70;91.60;;;;;;5098956;28;20107;-79
2022/02/17 10:47:22;;;;;;;14.60;10.32;;;4.50;91.80;;;;;;5097102;28;20028;-79
2022/02/17 10:49:52;;;;;;;19.67;11.02;;;4.50;91.80;;;;;;5096685;28;20117;-80
2022/02/17 10:52:34;;;;;;;19.65;13.82;;;4.50;92.10;;;;;;5095789;28;20027;-79
2022/02/17 10:55:22;;;;;;;20.30;11.80;;;4.50;92.20;;;;;;5097690;28;20028;-80
2022/02/17 10:57:48;;;;;;;23.83;14.05;;;4.60;92.10;;;;;;5096591;28;20028;-78
2022/02/17 11:00:30;;;;;;;;;;;;;;;;;;;;;
2022/02/17 11:02:56;;;;;;;21.63;11.82;;;4.80;91.90;;;;;;5095492;28;20036;-81
2022/02/17 11:05:22;;;;;;;16.48;11.32;;;4.90;91.60;;;;;;5095778;28;20024;-79
2022/02/17 11:07:53;;;;;;;17.00;10.98;;;4.90;91.10;;;;;;5095025;28;20110;-79
2022/02/17 11:10:19;;;;;;;21.13;11.93;;;4.90;91.20;;;;;;5093907;28;20027;-80
2022/02/17 11:12:55;;;;;;;16.13;8.68;;;4.80;91.10;;;;;;5095390;28;20058;-80
2022/02/17 11:15:21;;;;;;;17.95;11.20;;;4.80;91.10;;;;;;5095229;28;20024;-80
2022/02/17 11:17:47;;;;;;;15.52;9.23;;;4.70;91.30;;;;;;5095335;28;20046;-80
2022/02/17 11:20:17;;;;;;;16.60;10.35;;;4.70;91.40;;;;;;5095227;28;20099;-80
2022/02/17 11:22:49;;;;;;;22.67;11.48;;;4.70;91.30;;;;;;5094698;28;20056;-79
2022/02/17 11:25:16;;;;;;;21.48;13.40;;;4.60;91.50;;;;;;5094517;28;20377;-80
2022/02/17 11:28:04;;;;;;;25.45;15.20;;;4.50;91.60;;;;;;5095193;28;20032;-80
2022/02/17 11:30:31;;;;;;;17.33;10.40;;;4.60;91.80;;;;;;5095089;28;20095;-79
2022/02/17 11:33:28;;;;;;;18.42;11.18;;;4.50;91.50;;;;;;5093476;28;20066;-82
2022/02/17 11:35:57;;;;;;;17.58;9.77;;;4.50;91.90;;;;;;5095256;28;20103;-79
2022/02/17 11:38:32;;;;;;;29.05;15.48;;;4.40;91.90;;;;;;5094685;28;20024;-78
2022/02/17 11:40:59;;;;;;;23.38;15.27;;;4.40;92.20;;;;;;5092732;28;20397;-82
2022/02/17 11:43:31;;;;;;;28.60;16.30;;;4.40;92.00;;;;;;5094837;28;20062;-79
2022/02/17 11:45:57;;;;;;;23.10;13.25;;;4.50;92.20;;;;;;5095049;28;20032;-77
2022/02/17 11:48:41;;;;;;;24.10;14.57;;;4.50;92.30;;;;;;5094725;28;20034;-79
2022/02/17 11:51:17;;;;;;;26.30;15.52;;;4.50;91.80;;;;;;5095011;28;20097;-81
2022/02/17 11:53:47;;;;;;;22.63;14.25;;;4.50;92.10;;;;;;5095225;28;20117;-78
2022/02/17 11:56:16;;;;;;;24.70;15.13;;;4.50;92.00;;;;;;5096613;28;20095;-78
2022/02/17 11:58:53;;;;;;;25.48;16.27;;;4.50;91.90;;;;;;5094173;28;20028;-78
2022/02/17 12:01:33;;;;;;;18.08;10.77;;;4.50;91.80;;;;;;5095039;28;20020;-79
2022/02/17 12:04:14;;;;;;;23.13;13.35;;;4.50;92.00;;;;;;5096451;28;20048;-81
2022/02/17 12:06:41;;;;;;;21.73;13.13;;;4.50;91.80;;;;;;5095282;28;20113;-79
2022/02/17 12:09:10;;;;;;;17.80;10.82;;;4.40;91.90;;;;;;5097946;28;20028;-79
2022/02/17 12:11:41;;;;;;;18.27;10.15;;;4.40;92.00;;;;;;5095042;28;20043;-81
2022/02/17 12:14:08;;;;;;;24.05;13.80;;;4.30;91.90;;;;;;5094166;28;20044;-80
2022/02/17 12:16:41;;;;;;;20.95;12.85;;;4.20;92.30;;;;;;5093686;28;20107;-79
2022/02/17 12:19:14;;;;;;;19.38;10.40;;;4.20;92.30;;;;;;5094352;28;20047;-78
2022/02/17 12:21:41;;;;;;;24.70;14.27;;;4.20;92.50;;;;;;5096347;28;20016;-81
2022/02/17 12:24:08;;;;;;;17.75;12.50;;;4.10;92.50;;;;;;5096128;28;20019;-80
2022/02/17 12:26:39;;;;;;;21.85;13.15;;;4.10;92.50;;;;;;5095318;28;20028;-80
2022/02/17 12:29:33;;;;;;;24.55;15.07;;;4.10;92.70;;;;;;5094177;28;20016;-80
2022/02/17 12:32:01;;;;;;;20.50;12.13;;;4.10;92.70;;;;;;5093054;28;20027;-80
2022/02/17 12:34:27;;;;;;;;;;;4.10;92.50;;;;;;5094762;28;20127;-80
2022/02/17 12:36:53;;;;;;;24.60;11.48;;;4.00;93.00;;;;;;5093548;28;20015;-80
2022/02/17 12:39:20;;;;;;;29.30;14.75;;;4.00;92.80;;;;;;5093918;28;20024;-79
2022/02/17 12:41:56;;;;;;;19.60;11.57;;;4.00;92.90;;;;;;5094259;28;20052;-80
2022/02/17 12:44:30;;;;;;;18.35;12.85;;;4.00;93.00;;;;;;5092546;28;20028;-79
2022/02/17 12:47:00;;;;;;;19.08;11.05;;;3.90;93.00;;;;;;5094999;28;20508;-79
2022/02/17 12:49:29;;;;;;;15.50;11.02;;;3.90;93.10;;;;;;5094422;28;20503;-80
2022/02/17 12:52:06;;;;;;;16.15;9.05;;;3.90;93.10;;;;;;5095253;28;20389;-80
2022/02/17 12:54:32;;;;;;;21.55;13.05;;;3.80;93.60;;;;;;5093546;28;20036;-82
2022/02/17 12:57:11;;;;;;;23.05;13.48;;;3.70;93.50;;;;;;5093023;28;20028;-79